Portada
METAR-TAF:

METAR-TAF

Aeroports :

Plataforma petroliera

Heimdal, Noruega

latitud: 59-34-12N, longitud: 2-13-48E, altitud: 10 m

Observació

L'informe es va fer fa 34 minuts, a les 19:20 UTC
Vent 20 kt del Sud
Temperatura 15°C
Humitat 100%
Pressió 1019 hPa
Visibilitat: 5000 m

METAR: ENHM 241920Z AUTO 17020KT 5000NDV /// 15/15 Q1019 W15/S3

Hora: 21:54 (19:54 UTC)

Pronòstic

L'informe es va fer fa 8 hores i 54 minuts, a les 11:00 UTC
Pronòstic vàlid del 24 a les 12 UTC al 24 a les 17 UTC
Vent 22 kt del Sud
Visibilitat: 8000 m
Escasses núvols a una alçada de 600 ft
Núvols disperses a una alçada de 5000 ft
Probabilitat 30% :
Temporalment
l' 24 a les 12 UTC al 24 a les 15 UTC
Visibilitat: 4000 m
Cel ennuvolat a una alçada de 500 ft
boirina

TAF: ENHM 241100Z 2412/2417 17022KT 8000 FEW006 SCT050 PROB30 TEMPO 2412/2415 4000 BR BKN005

Observacions i pronòstics meteorològics de més de 4000 aeroports (METAR i TAF).

Les estacions disponibles són els punts grocs i vermells al mapa.

Posi el ratolí al punt desitjat per veure el nom de l'estació.

Feu clic per veure les observacions i els pronòstics meteorològics.

Per canviar el mapa: feu clic els botons verds amb una creu de color negre per apropar; al botó verd amb un guió per allunyar la imatge; o en les fletxes verdes per a mapes adjacents.


METAR-TAF: